Time;durP1;ratioP1;P1;durP2;ratioP2;P2;SDS_P1;SDS_P2;PMS_P1;PMS_P2;Temp;Humidity;BMP_temperature;BMP_pressure;BME280_temperature;BME280_humidity;BME280_pressure;Samples;Min_cycle;Max_cycle;Signal;HPM_P1;HPM_P2
2022/03/30 00:00:46;;;;;;;34.63;14.98;;;3.80;96.50;;;;;;5098058;28;20050;-66
2022/03/30 00:03:12;;;;;;;39.35;15.07;;;3.80;96.60;;;;;;5102562;28;20040;-66
2022/03/30 00:05:38;;;;;;;34.20;13.93;;;3.80;98.00;;;;;;5104233;28;20040;-66
2022/03/30 00:08:05;;;;;;;35.53;15.63;;;3.80;98.50;;;;;;5100408;28;20114;-66
2022/03/30 00:10:31;;;;;;;38.47;15.20;;;3.80;98.30;;;;;;5099706;28;20145;-66
2022/03/30 00:12:56;;;;;;;37.03;14.38;;;3.80;98.20;;;;;;5099787;28;20143;-65
2022/03/30 00:15:23;;;;;;;34.60;13.88;;;3.80;97.60;;;;;;5099461;28;20051;-66
2022/03/30 00:17:50;;;;;;;34.88;14.45;;;3.80;97.70;;;;;;5100939;28;20459;-66
2022/03/30 00:20:15;;;;;;;37.05;14.65;;;3.80;98.30;;;;;;5097116;28;20365;-66
2022/03/30 00:22:41;;;;;;;36.08;13.80;;;3.70;97.70;;;;;;5091388;28;20051;-66
2022/03/30 00:25:09;;;;;;;33.60;13.00;;;3.70;97.60;;;;;;5101178;28;21108;-66
2022/03/30 00:27:35;;;;;;;32.28;13.25;;;3.80;97.60;;;;;;5106408;28;20062;-66
2022/03/30 00:30:01;;;;;;;35.55;13.18;;;3.70;97.40;;;;;;5095896;28;20046;-65
2022/03/30 00:32:27;;;;;;;31.67;13.40;;;3.70;97.30;;;;;;5102353;28;20041;-66
2022/03/30 00:34:53;;;;;;;34.45;14.32;;;3.70;97.60;;;;;;5102837;28;20032;-66
2022/03/30 00:37:18;;;;;;;34.20;13.48;;;3.70;97.20;;;;;;5093499;28;20040;-66
2022/03/30 00:39:44;;;;;;;34.15;12.73;;;3.60;97.10;;;;;;5106937;28;20524;-66
2022/03/30 00:42:17;;;;;;;34.75;13.88;;;3.70;99.00;;;;;;5100649;28;20175;-66
2022/03/30 00:44:43;;;;;;;35.67;13.85;;;3.70;99.60;;;;;;5082061;28;20430;-66
2022/03/30 00:47:17;;;;;;;35.65;14.20;;;3.60;98.80;;;;;;5111901;28;20059;-66
2022/03/30 00:49:43;;;;;;;37.00;14.82;;;3.70;99.40;;;;;;5105920;28;20487;-66
2022/03/30 00:52:09;;;;;;;30.77;13.07;;;3.60;98.30;;;;;;5099260;28;20072;-66
2022/03/30 00:54:36;;;;;;;33.58;13.98;;;3.70;98.20;;;;;;5109150;28;20847;-66
2022/03/30 00:57:04;;;;;;;34.25;13.68;;;3.70;99.10;;;;;;5095062;28;20122;-66
2022/03/30 00:59:30;;;;;;;36.80;14.02;;;3.60;98.50;;;;;;5103666;28;20047;-65
2022/03/30 01:01:55;;;;;;;38.20;14.43;;;3.70;98.50;;;;;;5106136;28;20032;-66
2022/03/30 01:04:21;;;;;;;31.95;12.88;;;3.70;99.20;;;;;;5104853;28;20035;-66
2022/03/30 01:06:47;;;;;;;37.20;13.65;;;3.70;98.60;;;;;;5105470;28;20084;-65
2022/03/30 01:09:12;;;;;;;37.38;13.18;;;3.70;98.40;;;;;;5083827;28;20143;-66
2022/03/30 01:11:38;;;;;;;30.65;12.55;;;3.70;98.40;;;;;;5094898;28;20535;-66
2022/03/30 01:14:04;;;;;;;31.95;12.82;;;3.60;98.60;;;;;;5094457;28;20120;-66
2022/03/30 01:16:30;;;;;;;32.20;11.95;;;3.50;98.30;;;;;;5099742;28;20048;-66
2022/03/30 01:19:07;;;;;;;30.45;12.43;;;3.50;98.30;;;;;;5101308;28;20170;-65
2022/03/30 01:21:35;;;;;;;30.85;12.38;;;3.50;98.90;;;;;;5104201;28;20090;-66
2022/03/30 01:24:02;;;;;;;35.08;12.48;;;3.30;99.30;;;;;;5096397;28;20040;-71
2022/03/30 01:26:27;;;;;;;34.17;13.98;;;3.40;98.80;;;;;;5091382;28;20403;-66
2022/03/30 01:28:54;;;;;;;34.97;12.85;;;3.30;99.00;;;;;;5105904;28;20036;-66
2022/03/30 01:34:05;;;;;;;28.90;13.05;;;3.40;99.20;;;;;;5098037;28;20047;-66
2022/03/30 01:36:31;;;;;;;34.20;13.07;;;3.40;99.00;;;;;;5101297;28;20468;-69
2022/03/30 01:38:56;;;;;;;33.85;13.07;;;3.40;99.00;;;;;;5087079;28;20050;-66
2022/03/30 01:41:22;;;;;;;27.50;12.93;;;3.40;99.20;;;;;;5101679;28;20085;-67
2022/03/30 01:43:47;;;;;;;30.75;12.73;;;3.40;98.80;;;;;;5108563;28;20045;-66
2022/03/30 01:46:13;;;;;;;35.42;12.82;;;3.50;98.90;;;;;;5079108;28;20480;-66
2022/03/30 01:48:38;;;;;;;35.00;12.85;;;3.40;98.70;;;;;;5084360;28;20629;-66
2022/03/30 01:51:04;;;;;;;29.88;12.15;;;3.50;98.90;;;;;;5110280;28;20142;-65
2022/03/30 01:53:30;;;;;;;31.23;12.40;;;3.50;99.20;;;;;;5089246;28;20456;-65
2022/03/30 01:55:56;;;;;;;34.50;11.95;;;3.60;99.20;;;;;;5105732;28;20162;-66
2022/03/30 01:58:21;;;;;;;30.73;12.50;;;3.60;99.20;;;;;;5105848;28;20180;-66
2022/03/30 02:00:47;;;;;;;30.90;12.32;;;3.70;99.20;;;;;;5107672;28;20043;-66
2022/03/30 02:03:13;;;;;;;33.63;12.68;;;3.70;99.20;;;;;;5103920;28;20474;-66
2022/03/30 02:05:39;;;;;;;33.47;12.73;;;3.70;99.50;;;;;;5092161;28;20035;-66
2022/03/30 02:08:05;;;;;;;37.05;13.25;;;3.80;99.20;;;;;;5099475;28;20384;-65
2022/03/30 02:10:31;;;;;;;35.13;13.32;;;3.90;99.90;;;;;;5096695;28;20377;-65
2022/03/30 02:12:58;;;;;;;31.67;12.88;;;3.90;99.90;;;;;;5102465;28;20048;-66
2022/03/30 02:15:24;;;;;;;34.08;12.88;;;3.80;99.90;;;;;;5107793;28;20054;-66
2022/03/30 02:17:50;;;;;;;32.63;12.45;;;3.90;99.90;;;;;;5102642;28;20510;-66
2022/03/30 02:20:16;;;;;;;38.88;13.38;;;4.00;99.40;;;;;;5102380;28;20112;-65
2022/03/30 02:22:42;;;;;;;26.15;11.32;;;4.10;99.70;;;;;;5106546;28;20051;-66
2022/03/30 02:25:09;;;;;;;31.92;11.90;;;4.10;99.60;;;;;;5102630;28;20047;-66
2022/03/30 02:27:35;;;;;;;39.58;12.93;;;4.20;99.50;;;;;;5101374;28;20123;-66
2022/03/30 02:30:02;;;;;;;33.90;13.32;;;4.20;99.10;;;;;;5102042;28;20043;-66
2022/03/30 02:32:27;;;;;;;31.10;12.10;;;4.30;99.00;;;;;;5103112;28;20292;-66
2022/03/30 02:34:53;;;;;;;30.83;12.00;;;4.30;98.70;;;;;;5104501;28;20130;-66
2022/03/30 02:37:19;;;;;;;30.92;12.50;;;4.30;98.80;;;;;;5081495;28;20036;-66
2022/03/30 02:39:45;;;;;;;30.42;12.98;;;4.30;99.00;;;;;;5107376;28;20046;-66
2022/03/30 02:42:11;;;;;;;32.15;12.70;;;4.40;99.10;;;;;;5093256;28;20043;-67
2022/03/30 02:44:37;;;;;;;31.20;12.50;;;4.40;99.00;;;;;;5094275;28;20036;-66
2022/03/30 02:47:04;;;;;;;32.30;12.63;;;4.50;99.10;;;;;;5097260;28;20039;-67
2022/03/30 02:49:30;;;;;;;32.13;12.10;;;4.50;99.20;;;;;;5092959;28;20032;-65
2022/03/30 02:51:55;;;;;;;28.48;12.10;;;4.50;99.00;;;;;;5085064;28;20444;-68
2022/03/30 02:54:21;;;;;;;29.17;11.95;;;4.50;98.80;;;;;;5103668;28;20047;-66
2022/03/30 02:56:47;;;;;;;31.67;11.50;;;4.50;98.80;;;;;;5098656;28;20613;-66
2022/03/30 02:59:14;;;;;;;30.13;11.88;;;4.60;99.20;;;;;;5108402;28;20064;-66
2022/03/30 03:01:40;;;;;;;33.05;12.65;;;4.60;98.90;;;;;;5109057;28;20127;-66
2022/03/30 03:04:05;;;;;;;34.65;12.65;;;4.60;99.10;;;;;;5097271;28;20500;-66
2022/03/30 03:06:32;;;;;;;30.25;12.00;;;4.60;99.20;;;;;;5097702;28;20039;-66
2022/03/30 03:08:57;;;;;;;29.52;12.13;;;4.50;99.70;;;;;;5098025;28;20544;-66
2022/03/30 03:11:24;;;;;;;36.88;12.65;;;4.60;99.80;;;;;;5100902;28;20028;-66
2022/03/30 03:13:51;;;;;;;28.70;12.02;;;4.60;99.90;;;;;;5098594;28;20039;-66
2022/03/30 03:16:16;;;;;;;37.80;12.48;;;4.60;99.90;;;;;;5104265;28;20140;-66
2022/03/30 03:18:42;;;;;;;30.95;14.55;;;4.60;99.90;;;;;;5089777;28;20043;-67
2022/03/30 03:21:08;;;;;;;33.50;14.35;;;4.70;99.90;;;;;;5102224;28;20503;-66
2022/03/30 03:23:33;;;;;;;33.72;13.15;;;4.60;99.90;;;;;;5098693;28;20048;-66
2022/03/30 03:25:59;;;;;;;36.25;13.40;;;4.50;99.90;;;;;;5104128;28;20406;-67
2022/03/30 03:28:25;;;;;;;35.22;13.60;;;4.60;99.90;;;;;;5106391;28;20078;-66
2022/03/30 03:30:50;;;;;;;36.63;14.60;;;4.50;99.90;;;;;;5109261;28;20036;-66
2022/03/30 03:33:17;;;;;;;32.60;12.27;;;4.60;99.90;;;;;;5089619;28;20391;-67
2022/03/30 03:35:43;;;;;;;31.77;12.77;;;4.50;99.90;;;;;;5099201;28;20161;-66
2022/03/30 03:38:09;;;;;;;33.10;13.38;;;4.60;99.90;;;;;;5100287;28;20479;-66
2022/03/30 03:40:35;;;;;;;34.53;13.63;;;4.60;99.90;;;;;;5080008;28;20036;-67
2022/03/30 03:43:02;;;;;;;33.50;13.95;;;4.60;99.90;;;;;;5103542;28;20046;-67
2022/03/30 03:45:28;;;;;;;32.80;13.45;;;4.60;99.90;;;;;;5096015;28;20195;-67
2022/03/30 03:47:54;;;;;;;32.80;13.27;;;4.70;99.90;;;;;;5106517;28;20040;-66
2022/03/30 03:50:20;;;;;;;31.40;12.40;;;4.70;99.90;;;;;;5083853;28;20040;-67
2022/03/30 03:52:45;;;;;;;36.10;13.02;;;4.70;99.90;;;;;;5095856;28;20482;-66
2022/03/30 03:55:11;;;;;;;33.25;13.85;;;4.70;99.90;;;;;;5101775;28;20043;-67
2022/03/30 03:57:40;;;;;;;39.03;13.30;;;4.70;99.90;;;;;;5088914;28;20040;-67
2022/03/30 04:00:08;;;;;;;33.88;13.85;;;4.70;99.90;;;;;;5091758;28;20454;-66
2022/03/30 04:02:34;;;;;;;32.33;13.15;;;4.80;99.90;;;;;;5084891;28;20050;-67
2022/03/30 04:04:59;;;;;;;35.35;13.43;;;4.80;99.90;;;;;;5101302;28;20150;-67
2022/03/30 04:07:25;;;;;;;31.83;13.18;;;4.80;99.90;;;;;;5087513;28;20494;-67
2022/03/30 04:09:50;;;;;;;33.92;13.20;;;4.80;99.90;;;;;;5095038;28;20066;-67
2022/03/30 04:12:16;;;;;;;29.60;12.90;;;4.80;99.90;;;;;;5098672;28;20039;-69
2022/03/30 04:14:41;;;;;;;33.95;12.38;;;4.80;99.90;;;;;;5105239;28;20077;-67
2022/03/30 04:17:07;;;;;;;33.15;12.18;;;4.90;99.90;;;;;;5086183;28;20113;-67
2022/03/30 04:19:33;;;;;;;34.30;13.38;;;4.90;99.90;;;;;;5088568;28;20134;-67
2022/03/30 04:21:58;;;;;;;32.13;12.05;;;4.90;99.90;;;;;;5107404;28;20047;-67
2022/03/30 04:24:24;;;;;;;32.15;13.18;;;5.00;99.90;;;;;;5092876;28;20039;-67
2022/03/30 04:26:49;;;;;;;33.80;13.50;;;5.00;99.90;;;;;;5107642;28;20036;-67
2022/03/30 04:29:15;;;;;;;33.20;12.50;;;5.00;99.90;;;;;;5099348;28;20088;-67
2022/03/30 04:31:41;;;;;;;34.92;13.43;;;5.00;99.90;;;;;;5099913;28;20028;-68
2022/03/30 04:34:06;;;;;;;31.45;12.85;;;5.00;99.90;;;;;;5090637;28;20035;-67
2022/03/30 04:36:32;;;;;;;29.92;13.63;;;5.00;99.90;;;;;;5091321;28;20044;-67
2022/03/30 04:38:57;;;;;;;34.08;13.00;;;5.00;99.90;;;;;;5098502;28;20039;-67
2022/03/30 04:41:23;;;;;;;33.33;14.02;;;5.00;99.90;;;;;;5103836;28;20088;-67
2022/03/30 04:43:49;;;;;;;34.03;14.30;;;5.10;99.90;;;;;;5097096;28;20491;-67
2022/03/30 04:46:14;;;;;;;31.95;12.38;;;5.10;99.90;;;;;;5085932;28;20482;-67
2022/03/30 04:48:40;;;;;;;28.48;12.57;;;5.10;99.90;;;;;;5089726;28;20071;-66
2022/03/30 04:51:06;;;;;;;30.48;12.40;;;5.10;99.90;;;;;;5103864;28;20610;-66
2022/03/30 04:53:32;;;;;;;25.23;10.80;;;5.20;99.90;;;;;;5102349;28;20141;-67
2022/03/30 04:55:58;;;;;;;23.05;9.38;;;5.20;99.90;;;;;;5104584;28;20051;-67
2022/03/30 04:58:24;;;;;;;17.13;8.15;;;5.20;99.90;;;;;;5090265;28;20040;-67
2022/03/30 05:00:49;;;;;;;12.75;5.50;;;5.30;99.90;;;;;;5095508;28;20042;-67
2022/03/30 05:03:15;;;;;;;11.00;4.97;;;5.30;99.90;;;;;;5091246;28;20352;-67
2022/03/30 05:05:41;;;;;;;11.52;3.92;;;5.30;99.90;;;;;;5107584;28;20452;-67
2022/03/30 05:08:07;;;;;;;7.68;3.25;;;5.40;99.90;;;;;;5084752;28;20035;-67
2022/03/30 05:10:33;;;;;;;3.58;2.33;;;5.40;99.90;;;;;;5095102;28;20040;-66
2022/03/30 05:13:00;;;;;;;4.65;2.50;;;5.40;99.90;;;;;;5095996;28;20459;-67
2022/03/30 05:15:28;;;;;;;2.67;1.60;;;5.40;99.90;;;;;;5091692;28;20040;-66
2022/03/30 05:17:55;;;;;;;2.60;1.48;;;5.40;99.90;;;;;;5094482;28;20364;-67
2022/03/30 05:20:21;;;;;;;2.80;1.52;;;5.40;99.90;;;;;;5088600;28;20052;-66
2022/03/30 05:22:47;;;;;;;1.83;1.20;;;5.30;99.90;;;;;;5099031;28;20089;-67
2022/03/30 05:25:15;;;;;;;2.95;1.33;;;5.40;99.90;;;;;;5107756;27;20082;-66
2022/03/30 05:27:41;;;;;;;1.88;1.58;;;5.30;99.90;;;;;;5110156;27;20039;-67
2022/03/30 05:30:08;;;;;;;3.03;1.67;;;5.40;99.90;;;;;;5110538;27;20125;-67
2022/03/30 05:32:35;;;;;;;2.20;1.50;;;5.40;99.90;;;;;;5109430;27;20382;-67
2022/03/30 05:35:01;;;;;;;2.90;1.60;;;5.40;99.90;;;;;;5100648;27;20043;-66
2022/03/30 05:37:27;;;;;;;1.83;1.60;;;5.40;99.90;;;;;;5098202;27;20039;-67
2022/03/30 05:39:53;;;;;;;2.45;1.40;;;5.40;99.90;;;;;;5101086;27;20039;-67
2022/03/30 05:42:23;;;;;;;2.60;1.55;;;5.30;99.90;;;;;;5110655;27;20810;-67
2022/03/30 05:44:50;;;;;;;2.07;1.40;;;5.40;99.90;;;;;;5084983;27;20050;-67
2022/03/30 05:47:16;;;;;;;2.67;1.80;;;5.40;99.90;;;;;;5108145;27;20031;-67
2022/03/30 05:49:41;;;;;;;3.38;1.88;;;5.30;99.90;;;;;;5112290;27;20088;-67
2022/03/30 05:52:07;;;;;;;2.60;1.75;;;5.30;99.90;;;;;;5102391;27;20483;-67
2022/03/30 05:54:33;;;;;;;2.28;1.60;;;5.20;99.90;;;;;;5107663;27;20039;-66
2022/03/30 05:57:01;;;;;;;2.55;1.70;;;5.20;99.90;;;;;;5109377;27;20036;-67
2022/03/30 05:59:31;;;;;;;2.80;1.83;;;5.20;99.90;;;;;;5107842;27;20048;-67
2022/03/30 06:01:57;;;;;;;3.23;1.80;;;5.20;99.90;;;;;;5111750;27;20467;-67
2022/03/30 06:04:23;;;;;;;2.45;1.55;;;5.10;99.90;;;;;;5106723;27;20443;-67
2022/03/30 06:06:52;;;;;;;2.17;1.33;;;5.10;99.90;;;;;;5115185;27;20063;-67
2022/03/30 06:09:18;;;;;;;3.25;1.40;;;5.10;99.90;;;;;;5090355;27;20039;-67
2022/03/30 06:11:45;;;;;;;1.77;1.45;;;5.00;99.90;;;;;;5096019;27;20498;-67
2022/03/30 06:14:10;;;;;;;3.60;1.58;;;5.10;99.90;;;;;;5091720;27;20039;-67
2022/03/30 06:16:37;;;;;;;1.70;1.40;;;5.10;99.90;;;;;;5111423;27;20054;-67
2022/03/30 06:19:02;;;;;;;2.15;1.35;;;5.10;99.90;;;;;;5094833;27;20113;-67
2022/03/30 06:21:31;;;;;;;1.77;1.25;;;5.10;99.90;;;;;;5104550;28;20090;-67
2022/03/30 06:24:01;;;;;;;1.90;1.40;;;5.10;99.90;;;;;;5100988;28;20060;-67
2022/03/30 06:26:27;;;;;;;2.40;1.67;;;5.10;99.90;;;;;;5089989;28;20044;-67
2022/03/30 06:28:53;;;;;;;2.55;1.50;;;5.10;99.90;;;;;;5106762;28;20038;-67
2022/03/30 06:31:19;;;;;;;2.67;1.92;;;5.20;99.90;;;;;;5090248;28;20122;-67
2022/03/30 06:33:47;;;;;;;5.97;3.00;;;5.20;99.90;;;;;;5095945;28;20035;-67
2022/03/30 06:36:13;;;;;;;5.30;3.17;;;5.20;99.90;;;;;;5107451;28;20042;-68
2022/03/30 06:38:39;;;;;;;3.97;2.95;;;5.30;99.90;;;;;;5104108;28;20167;-67
2022/03/30 06:41:07;;;;;;;2.95;2.20;;;5.50;99.90;;;;;;5123228;27;20079;-67
2022/03/30 06:43:32;;;;;;;2.47;1.60;;;5.60;99.90;;;;;;5105707;28;20043;-67
2022/03/30 06:45:58;;;;;;;1.48;1.20;;;5.80;99.90;;;;;;5087069;28;20101;-67
2022/03/30 06:48:23;;;;;;;2.03;1.00;;;5.80;99.90;;;;;;5107899;28;20139;-68
2022/03/30 06:50:49;;;;;;;2.70;1.02;;;5.90;99.90;;;;;;5108902;28;20180;-67
2022/03/30 06:53:15;;;;;;;0.75;0.70;;;6.10;99.90;;;;;;5105713;28;20062;-67
2022/03/30 06:55:40;;;;;;;1.50;0.73;;;6.20;99.90;;;;;;5082322;28;20031;-67
2022/03/30 06:58:06;;;;;;;2.17;0.90;;;6.30;99.90;;;;;;5107669;28;20040;-67
2022/03/30 07:00:32;;;;;;;3.25;0.85;;;6.40;99.90;;;;;;5108426;28;20043;-67
2022/03/30 07:02:58;;;;;;;3.75;1.00;;;6.50;99.90;;;;;;5086944;28;20046;-67
2022/03/30 07:05:24;;;;;;;1.90;1.02;;;6.60;99.90;;;;;;5105411;28;20491;-67
2022/03/30 07:10:33;;;;;;;1.25;0.95;;;6.70;99.90;;;;;;5105666;28;20097;-67
2022/03/30 07:13:03;;;;;;;2.53;0.90;;;6.80;99.90;;;;;;5091132;28;20060;-67
2022/03/30 07:15:30;;;;;;;1.50;1.10;;;6.90;99.90;;;;;;5102263;28;20104;-67
2022/03/30 07:17:58;;;;;;;1.92;0.90;;;7.00;99.70;;;;;;5103800;28;20105;-67
2022/03/30 07:20:26;;;;;;;2.10;0.80;;;7.00;98.80;;;;;;5084461;28;21642;-67
2022/03/30 07:22:52;;;;;;;4.22;1.05;;;7.10;98.40;;;;;;5083099;28;20040;-67
2022/03/30 07:25:20;;;;;;;2.75;0.95;;;7.10;97.90;;;;;;5100055;28;20051;-67
2022/03/30 07:27:50;;;;;;;1.73;0.75;;;7.10;97.10;;;;;;5103830;27;20121;-67
2022/03/30 07:30:16;;;;;;;2.13;0.82;;;7.20;96.80;;;;;;5078288;27;20127;-67
2022/03/30 07:32:47;;;;;;;1.05;0.95;;;7.20;96.30;;;;;;5102533;27;20110;-67
2022/03/30 07:35:15;;;;;;;2.63;1.00;;;7.30;95.80;;;;;;5106604;27;20087;-67
2022/03/30 07:37:43;;;;;;;3.38;0.82;;;7.20;95.00;;;;;;5107675;27;20035;-67
2022/03/30 07:40:12;;;;;;;2.80;1.10;;;7.30;94.70;;;;;;5087109;27;20042;-67
2022/03/30 07:42:39;;;;;;;2.55;1.00;;;7.30;94.60;;;;;;5107919;27;20082;-67
2022/03/30 07:45:06;;;;;;;2.15;0.90;;;7.40;94.40;;;;;;5098525;28;20035;-67
2022/03/30 07:47:32;;;;;;;1.42;0.90;;;7.50;94.10;;;;;;5092677;28;20044;-66
2022/03/30 07:49:59;;;;;;;1.80;1.08;;;7.50;94.00;;;;;;5094199;27;20035;-67
2022/03/30 07:52:25;;;;;;;2.40;0.88;;;7.60;93.70;;;;;;5112953;27;20027;-67
2022/03/30 07:54:52;;;;;;;3.97;1.35;;;7.70;93.50;;;;;;5108415;27;20071;-68
2022/03/30 07:57:20;;;;;;;3.63;1.00;;;7.70;93.30;;;;;;5093290;28;20036;-67
2022/03/30 07:59:46;;;;;;;4.22;1.13;;;7.80;92.90;;;;;;5076102;28;20123;-67
2022/03/30 08:02:15;;;;;;;2.60;0.95;;;7.80;92.80;;;;;;5104210;28;20114;-67
2022/03/30 08:04:41;;;;;;;2.92;1.02;;;7.90;92.40;;;;;;5093219;28;20051;-67
2022/03/30 08:07:07;;;;;;;3.25;1.00;;;8.10;91.60;;;;;;5108719;27;20039;-67
2022/03/30 08:09:32;;;;;;;4.50;1.10;;;8.10;91.70;;;;;;5096107;28;20046;-67
2022/03/30 08:11:58;;;;;;;2.47;1.33;;;8.20;91.40;;;;;;5098773;28;20078;-67
2022/03/30 08:14:23;;;;;;;5.47;0.90;;;8.30;91.10;;;;;;5103268;27;20043;-67
2022/03/30 08:16:49;;;;;;;2.80;0.80;;;8.40;90.80;;;;;;5092236;28;20040;-67
2022/03/30 08:19:14;;;;;;;3.65;1.00;;;8.50;90.20;;;;;;5091496;28;20043;-67
2022/03/30 08:24:24;;;;;;;2.30;1.10;;;8.60;88.40;;;;;;5105412;28;20051;-67
2022/03/30 08:26:49;;;;;;;3.30;0.95;;;8.50;88.50;;;;;;5098819;28;20103;-67
2022/03/30 08:29:16;;;;;;;2.78;1.20;;;8.60;88.10;;;;;;5084809;28;20116;-66
2022/03/30 08:31:42;;;;;;;4.20;0.90;;;8.60;87.60;;;;;;5111320;28;20042;-71
2022/03/30 08:34:07;;;;;;;2.33;1.20;;;8.70;86.70;;;;;;5102106;28;20424;-67
2022/03/30 08:36:33;;;;;;;2.50;0.95;;;8.70;85.80;;;;;;5092023;28;20047;-67
2022/03/30 08:38:59;;;;;;;2.40;0.80;;;8.80;85.60;;;;;;5094762;28;20058;-67
2022/03/30 08:41:25;;;;;;;2.35;1.02;;;8.80;85.40;;;;;;5115943;28;20054;-67
2022/03/30 08:43:52;;;;;;;4.53;1.08;;;8.90;84.30;;;;;;5104966;28;20036;-68
2022/03/30 08:46:18;;;;;;;4.78;1.10;;;9.00;83.50;;;;;;5099482;28;21695;-67
2022/03/30 08:48:43;;;;;;;3.50;0.85;;;9.00;82.70;;;;;;5094807;28;20042;-67
2022/03/30 08:51:10;;;;;;;3.25;0.90;;;9.10;82.40;;;;;;5108621;28;20429;-67
2022/03/30 08:53:37;;;;;;;3.97;1.02;;;9.20;82.10;;;;;;5107529;28;20045;-68
2022/03/30 08:56:03;;;;;;;2.78;1.00;;;9.20;81.30;;;;;;5104177;28;20063;-67
2022/03/30 08:58:29;;;;;;;3.28;1.00;;;9.10;81.10;;;;;;5094891;27;20047;-67
2022/03/30 09:01:09;;;;;;;3.03;1.10;;;9.20;80.70;;;;;;5114575;27;20045;-67
2022/03/30 09:03:35;;;;;;;3.17;1.23;;;9.20;79.20;;;;;;5096394;27;20453;-67
2022/03/30 09:06:01;;;;;;;1.90;1.10;;;9.20;80.00;;;;;;5114271;27;20133;-68
2022/03/30 09:08:27;;;;;;;5.05;1.15;;;9.20;80.00;;;;;;5115149;27;20434;-67
2022/03/30 09:10:55;;;;;;;3.88;0.93;;;9.30;79.70;;;;;;5092948;27;20028;-70
2022/03/30 09:13:22;;;;;;;3.60;1.20;;;9.30;75.90;;;;;;5109801;27;20135;-68
2022/03/30 09:15:50;;;;;;;4.95;1.30;;;9.30;77.50;;;;;;5111198;27;20035;-68
2022/03/30 09:18:16;;;;;;;4.82;1.20;;;9.30;78.10;;;;;;5112948;27;20062;-68
2022/03/30 09:20:44;;;;;;;2.35;1.10;;;9.30;77.20;;;;;;5113705;27;20055;-67
2022/03/30 09:23:11;;;;;;;2.78;1.10;;;9.30;76.60;;;;;;5103527;27;20051;-67
2022/03/30 09:25:37;;;;;;;2.70;0.98;;;9.20;76.70;;;;;;5110105;27;20074;-67
2022/03/30 09:28:03;;;;;;;5.25;1.23;;;9.10;76.60;;;;;;5100840;28;20073;-68
2022/03/30 09:30:29;;;;;;;4.40;1.15;;;9.00;76.70;;;;;;5097528;27;20043;-67
2022/03/30 09:32:57;;;;;;;5.50;1.50;;;8.90;77.00;;;;;;5102258;27;20047;-67
2022/03/30 09:35:37;;;;;;;3.17;1.40;;;8.70;77.60;;;;;;5098055;27;20097;-67
2022/03/30 09:38:13;;;;;;;3.70;1.58;;;8.60;78.20;;;;;;5091173;27;20068;-66
2022/03/30 09:41:04;;;;;;;4.80;1.70;;;8.40;79.20;;;;;;5100132;27;20407;-67
2022/03/30 09:43:34;;;;;;;4.70;1.42;;;8.40;80.20;;;;;;5088100;27;20133;-67
2022/03/30 09:46:02;;;;;;;2.55;1.35;;;8.30;80.90;;;;;;5115603;27;20321;-67
2022/03/30 09:48:30;;;;;;;5.10;1.30;;;8.20;82.10;;;;;;5100109;27;20092;-67
2022/03/30 09:50:58;;;;;;;4.75;1.60;;;8.10;82.90;;;;;;5108867;27;20110;-68
2022/03/30 09:53:26;;;;;;;5.85;1.80;;;8.00;83.60;;;;;;5100480;27;20525;-67
2022/03/30 09:56:24;;;;;;;4.18;1.50;;;8.00;83.70;;;;;;5109217;27;20451;-68
2022/03/30 09:58:59;;;;;;;3.35;1.30;;;8.00;84.20;;;;;;5112570;27;20034;-68
2022/03/30 10:01:29;;;;;;;4.50;1.05;;;8.10;84.50;;;;;;5110786;27;20177;-68
2022/03/30 10:04:02;;;;;;;3.95;1.40;;;8.10;83.80;;;;;;5114934;27;20039;-68
2022/03/30 10:06:30;;;;;;;3.38;1.40;;;8.30;83.50;;;;;;5103008;28;20191;-68
2022/03/30 10:08:56;;;;;;;2.05;0.82;;;8.60;82.20;;;;;;5105529;27;20036;-68
2022/03/30 10:11:24;;;;;;;3.33;1.17;;;8.70;81.10;;;;;;5094249;28;20036;-68
2022/03/30 10:13:55;;;;;;;3.72;1.52;;;9.00;80.70;;;;;;5106131;27;20086;-68
2022/03/30 10:16:22;;;;;;;2.75;1.00;;;9.20;78.10;;;;;;5114928;27;20059;-68
2022/03/30 10:18:49;;;;;;;0.80;0.68;;;9.30;76.80;;;;;;5107704;27;20039;-69
2022/03/30 10:21:23;;;;;;;1.45;0.90;;;9.00;75.80;;;;;;5110794;27;20059;-68
2022/03/30 10:24:17;;;;;;;1.52;1.00;;;9.20;76.00;;;;;;5101078;27;20051;-70
2022/03/30 10:27:09;;;;;;;1.42;0.82;;;9.20;75.40;;;;;;5110387;27;20549;-69
2022/03/30 10:29:37;;;;;;;2.13;0.85;;;9.30;75.10;;;;;;5091575;27;20043;-69
2022/03/30 10:32:13;;;;;;;1.95;0.90;;;9.30;76.00;;;;;;5113627;27;20058;-69
2022/03/30 10:34:53;;;;;;;2.53;1.00;;;9.40;74.20;;;;;;5103618;27;20063;-68
2022/03/30 10:37:28;;;;;;;;;;;9.40;74.90;;;;;;5111546;27;20062;-69
2022/03/30 10:40:00;;;;;;;1.55;0.95;;;9.50;71.60;;;;;;5108881;28;19916;-69
2022/03/30 10:42:25;;;;;;;3.92;0.80;;;9.60;74.90;;;;;;5114574;27;20039;-69
2022/03/30 10:44:57;;;;;;;3.08;1.08;;;9.70;74.00;;;;;;5126544;27;20053;-69
2022/03/30 10:47:30;;;;;;;1.77;1.10;;;9.70;72.40;;;;;;5112303;27;20447;-69
2022/03/30 10:49:58;;;;;;;3.35;1.10;;;9.80;71.50;;;;;;5111507;27;20039;-69
2022/03/30 10:52:40;;;;;;;2.45;0.90;;;9.70;71.60;;;;;;5110466;27;20184;-68
2022/03/30 10:55:15;;;;;;;4.22;1.05;;;9.90;71.80;;;;;;5104539;27;20521;-69
2022/03/30 10:57:50;;;;;;;3.75;1.20;;;9.90;69.70;;;;;;5104634;27;20058;-69
2022/03/30 11:00:20;;;;;;;2.40;1.00;;;10.00;70.40;;;;;;5104811;27;20110;-69
2022/03/30 11:02:46;;;;;;;2.25;0.90;;;10.00;69.80;;;;;;5111567;27;20031;-69
2022/03/30 11:05:14;;;;;;;5.25;1.10;;;10.00;70.40;;;;;;5090572;27;20043;-69
2022/03/30 11:07:40;;;;;;;2.40;1.02;;;10.20;69.80;;;;;;5102659;27;20035;-70
2022/03/30 11:10:17;;;;;;;1.88;1.00;;;10.10;69.40;;;;;;5107586;27;20080;-69
2022/03/30 11:13:13;;;;;;;4.38;1.60;;;10.20;67.00;;;;;;5104672;27;20058;-69
2022/03/30 11:16:04;;;;;;;2.17;1.10;;;10.10;66.60;;;;;;5091421;27;20059;-69
2022/03/30 11:18:30;;;;;;;1.50;1.00;;;10.10;66.30;;;;;;5085332;27;20047;-69
2022/03/30 11:21:20;;;;;;;3.45;1.08;;;10.10;68.30;;;;;;5105732;27;20443;-69
2022/03/30 11:24:08;;;;;;;6.70;1.02;;;10.10;66.10;;;;;;5126350;27;20089;-69
2022/03/30 11:26:49;;;;;;;2.30;1.02;;;9.90;65.30;;;;;;5111962;27;20149;-68
2022/03/30 11:29:44;;;;;;;2.22;0.90;;;9.90;67.20;;;;;;5089465;28;20043;-69
2022/03/30 11:32:19;;;;;;;2.15;1.00;;;10.00;66.40;;;;;;5094397;27;20043;-69
2022/03/30 11:34:47;;;;;;;2.33;0.93;;;9.80;65.20;;;;;;5090193;27;20164;-69
2022/03/30 11:37:13;;;;;;;3.03;0.98;;;9.70;66.50;;;;;;5105797;27;20122;-69
2022/03/30 11:39:39;;;;;;;2.83;1.08;;;9.60;66.10;;;;;;5108214;27;20127;-69
2022/03/30 11:42:05;;;;;;;2.92;0.90;;;9.60;65.10;;;;;;5105895;27;20162;-69
2022/03/30 11:47:17;;;;;;;2.85;1.00;;;9.60;66.30;;;;;;5110954;28;20559;-69
2022/03/30 11:49:50;;;;;;;2.67;1.20;;;9.80;66.30;;;;;;5078301;28;20046;-69
2022/03/30 11:52:19;;;;;;;3.15;1.10;;;10.00;65.60;;;;;;5124520;27;20027;-69
2022/03/30 11:54:53;;;;;;;2.63;0.75;;;10.20;65.90;;;;;;5101974;27;20047;-68
2022/03/30 11:57:20;;;;;;;2.55;0.90;;;10.10;64.00;;;;;;5085101;28;20039;-69
2022/03/30 12:00:00;;;;;;;2.88;1.00;;;10.10;65.10;;;;;;5092835;28;20131;-70
2022/03/30 12:02:27;;;;;;;0.95;0.80;;;9.60;62.50;;;;;;5107301;27;20042;-69
2022/03/30 12:04:54;;;;;;;2.72;1.15;;;9.60;63.90;;;;;;5110963;28;20127;-68
2022/03/30 12:07:20;;;;;;;1.83;1.08;;;9.60;63.10;;;;;;5109902;27;20083;-69
2022/03/30 12:09:47;;;;;;;1.55;0.90;;;9.70;64.10;;;;;;5103400;28;20032;-69
2022/03/30 12:12:24;;;;;;;3.28;1.48;;;9.60;64.50;;;;;;5108129;28;20035;-69
2022/03/30 12:15:00;;;;;;;2.35;1.00;;;9.60;64.50;;;;;;5089230;28;20036;-70
2022/03/30 12:17:27;;;;;;;2.97;0.93;;;9.50;64.10;;;;;;5096855;27;20134;-70
2022/03/30 12:19:54;;;;;;;3.55;1.02;;;9.40;65.00;;;;;;5104249;27;20162;-69
2022/03/30 12:22:20;;;;;;;4.32;1.02;;;9.50;65.50;;;;;;5108582;28;20095;-68
2022/03/30 12:24:46;;;;;;;5.43;1.25;;;9.70;65.40;;;;;;5107723;28;20048;-69
2022/03/30 12:27:12;;;;;;;2.45;1.30;;;9.90;65.30;;;;;;5110352;28;20060;-68
2022/03/30 12:29:38;;;;;;;3.33;1.23;;;10.30;65.10;;;;;;5091848;28;20130;-69
2022/03/30 12:32:05;;;;;;;3.70;1.10;;;10.50;63.30;;;;;;5109017;27;20057;-70
2022/03/30 12:34:34;;;;;;;3.30;1.13;;;10.60;62.70;;;;;;5104722;27;20039;-70
2022/03/30 12:37:02;;;;;;;2.90;1.05;;;10.50;62.50;;;;;;5080639;27;20484;-70
2022/03/30 12:39:33;;;;;;;5.10;1.10;;;10.20;62.00;;;;;;5095236;27;20043;-68
2022/03/30 12:42:05;;;;;;;2.58;1.30;;;10.20;62.50;;;;;;5110691;27;20042;-70
2022/03/30 12:44:46;;;;;;;4.40;0.98;;;10.20;62.10;;;;;;5099773;28;20051;-69
2022/03/30 12:47:32;;;;;;;3.03;1.40;;;10.00;62.20;;;;;;5096289;28;20523;-69
2022/03/30 12:50:00;;;;;;;3.25;0.80;;;9.80;61.70;;;;;;5091746;27;20126;-69
2022/03/30 12:52:32;;;;;;;3.60;1.40;;;9.90;63.10;;;;;;5111897;27;20047;-69
2022/03/30 12:55:13;;;;;;;9.43;1.67;;;9.90;63.10;;;;;;5113446;27;20032;-69
2022/03/30 12:57:52;;;;;;;8.20;1.77;;;9.60;63.40;;;;;;5108677;27;20093;-69
2022/03/30 13:00:21;;;;;;;1.92;1.15;;;9.60;63.00;;;;;;5113526;27;20421;-68
2022/03/30 13:02:47;;;;;;;3.10;1.02;;;9.60;64.00;;;;;;5114501;27;20047;-70